createdAt,value
2023-01-09T00:06:03.063Z,94.76
2023-01-09T00:09:42.252Z,94.72
2023-01-09T00:12:51.495Z,94.51
2023-01-09T00:16:03.311Z,94.38
2023-01-09T00:19:46.437Z,93.47
2023-01-09T00:22:40.619Z,94.29
2023-01-09T00:26:31.726Z,94.40
2023-01-09T00:29:50.563Z,94.88
2023-01-09T00:32:52.887Z,94.70
2023-01-09T00:36:11.907Z,94.64
2023-01-09T00:39:24.510Z,94.46
2023-01-09T00:42:45.353Z,94.44
2023-01-09T00:45:32.627Z,94.12
2023-01-09T00:49:24.508Z,94.37
2023-01-09T00:52:27.712Z,94.24
2023-01-09T00:55:36.601Z,94.10
2023-01-09T00:58:53.662Z,94.23
2023-01-09T01:02:13.899Z,93.72
2023-01-09T01:05:44.591Z,90.79
2023-01-09T01:08:58.691Z,92.71
2023-01-09T01:12:38.744Z,93.54
2023-01-09T01:15:45.667Z,93.85
2023-01-09T01:19:21.642Z,90.74
2023-01-09T01:22:09.891Z,88.89
2023-01-09T01:25:35.600Z,88.47
2023-01-09T01:28:48.628Z,88.21
2023-01-09T01:31:50.655Z,87.95
2023-01-09T01:35:09.563Z,88.42
2023-01-09T01:38:33.670Z,88.61
2023-01-09T01:52:48.666Z,89.08
2023-01-09T01:55:39.110Z,89.41
2023-01-09T01:59:26.646Z,89.67
2023-01-09T02:06:16.326Z,89.50
2023-01-09T02:09:41.254Z,88.65
2023-01-09T02:16:12.386Z,89.14
2023-01-09T02:19:10.624Z,88.01
2023-01-09T02:22:11.479Z,87.91
2023-01-09T02:25:12.004Z,87.38
2023-01-09T02:28:06.070Z,87.09
2023-01-09T02:30:45.493Z,87.23
2023-01-09T02:33:38.287Z,87.29
2023-01-09T02:36:28.919Z,87.15
2023-01-09T02:39:22.243Z,87.06
2023-01-09T02:42:08.889Z,86.81
2023-01-09T02:44:37.137Z,86.99
2023-01-09T02:47:08.970Z,87.80
2023-01-09T02:49:39.946Z,87.68
2023-01-09T02:52:34.062Z,87.85
2023-01-09T02:55:18.766Z,87.79
2023-01-09T02:58:04.755Z,87.83
2023-01-09T03:00:46.348Z,88.16
2023-01-09T03:03:34.322Z,88.41
2023-01-09T03:06:15.789Z,88.48
2023-01-09T03:08:49.278Z,88.50
2023-01-09T03:11:17.432Z,88.82
2023-01-09T03:13:51.374Z,88.50
2023-01-09T03:16:25.005Z,88.69
2023-01-09T03:18:56.012Z,88.49
2023-01-09T03:21:24.518Z,88.70
2023-01-09T03:23:55.956Z,88.57
2023-01-09T03:26:24.757Z,88.69
2023-01-09T03:28:52.936Z,88.32
2023-01-09T03:31:21.428Z,88.42
2023-01-09T03:33:49.741Z,88.60
2023-01-09T03:36:20.201Z,88.33
2023-01-09T03:38:49.055Z,88.51
2023-01-09T03:41:17.986Z,88.55
2023-01-09T03:43:48.209Z,89.17
2023-01-09T03:46:17.153Z,88.94
2023-01-09T03:48:44.958Z,88.93
2023-01-09T03:51:13.104Z,89.00
2023-01-09T03:53:41.729Z,88.76
2023-01-09T03:56:09.747Z,88.85
2023-01-09T03:58:37.640Z,88.70
2023-01-09T04:01:09.384Z,88.69
2023-01-09T04:03:37.744Z,88.69
2023-01-09T04:06:06.217Z,88.61
2023-01-09T04:08:34.129Z,88.56
2023-01-09T04:11:02.215Z,88.81
2023-01-09T04:13:31.254Z,88.78
2023-01-09T04:15:59.598Z,88.83
2023-01-09T04:18:30.509Z,88.48
2023-01-09T04:20:58.444Z,88.66
2023-01-09T04:23:26.615Z,89.04
2023-01-09T04:25:54.566Z,89.16
2023-01-09T04:28:22.405Z,88.96
2023-01-09T04:30:50.258Z,88.87
2023-01-09T04:33:18.364Z,89.59
2023-01-09T04:35:46.191Z,89.49
2023-01-09T04:38:14.058Z,89.72
2023-01-09T04:40:56.489Z,90.46
2023-01-09T04:43:25.098Z,91.01
2023-01-09T04:45:53.156Z,91.03
2023-01-09T04:48:21.010Z,90.70
2023-01-09T04:50:48.822Z,90.38
2023-01-09T04:53:16.723Z,90.50
2023-01-09T04:55:45.566Z,90.40
2023-01-09T04:58:14.548Z,90.17
2023-01-09T05:00:42.342Z,90.27
2023-01-09T05:03:10.468Z,90.22
2023-01-09T05:05:38.295Z,89.57
2023-01-09T05:08:06.465Z,89.16
2023-01-09T05:10:34.251Z,89.07
2023-01-09T05:13:02.102Z,89.11
2023-01-09T05:15:30.985Z,88.76
2023-01-09T05:17:58.908Z,88.44
2023-01-09T05:20:26.793Z,88.54
2023-01-09T05:22:54.612Z,88.69
2023-01-09T05:25:22.523Z,88.34
2023-01-09T05:28:50.689Z,88.49
2023-01-09T05:32:58.898Z,88.17
2023-01-09T05:36:21.917Z,88.14
2023-01-09T05:39:59.600Z,88.27
2023-01-09T05:43:51.668Z,88.29
2023-01-09T05:46:58.365Z,87.87
2023-01-09T05:57:04.247Z,87.69
2023-01-09T06:00:52.675Z,88.02
2023-01-09T06:03:59.471Z,88.67
2023-01-09T06:07:08.907Z,88.58
2023-01-09T06:10:45.836Z,88.31
2023-01-09T06:14:08.348Z,88.31
2023-01-09T06:17:36.627Z,88.54
2023-01-09T06:21:35.304Z,88.25
2023-01-09T06:25:04.798Z,88.14
2023-01-09T06:28:35.719Z,88.00
2023-01-09T06:31:44.966Z,87.95
2023-01-09T06:35:16.671Z,88.00
2023-01-09T06:38:17.492Z,87.16
2023-01-09T06:41:31.224Z,87.30
2023-01-09T06:44:42.238Z,87.58
2023-01-09T06:47:41.910Z,87.46
2023-01-09T06:51:25.787Z,87.29
2023-01-09T06:54:21.959Z,87.63
2023-01-09T06:57:39.738Z,87.25
2023-01-09T07:00:09.006Z,86.92
2023-01-09T07:02:38.575Z,87.14
2023-01-09T07:05:08.528Z,87.34
2023-01-09T07:07:36.611Z,87.18
2023-01-09T07:10:05.612Z,87.17
2023-01-09T07:12:33.962Z,86.87
2023-01-09T07:15:02.319Z,86.98
2023-01-09T07:17:32.797Z,87.15
2023-01-09T07:20:01.063Z,86.59
2023-01-09T07:22:29.154Z,86.60
2023-01-09T07:24:57.186Z,86.16
2023-01-09T07:27:25.059Z,85.55
2023-01-09T07:29:53.537Z,85.19
2023-01-09T07:32:21.789Z,84.81
2023-01-09T07:34:51.570Z,84.16
2023-01-09T07:37:19.836Z,84.24
2023-01-09T07:39:47.709Z,83.96
2023-01-09T07:42:15.839Z,83.72
2023-01-09T07:44:44.207Z,84.29
2023-01-09T07:47:12.244Z,83.40
2023-01-09T07:49:40.277Z,83.33
2023-01-09T07:52:08.775Z,82.63
2023-01-09T07:54:36.799Z,82.56
2023-01-09T07:57:06.173Z,82.04
2023-01-09T07:59:34.140Z,82.23
2023-01-09T08:02:05.614Z,82.18
2023-01-09T08:04:34.012Z,82.08
2023-01-09T08:07:03.688Z,82.37
2023-01-09T08:09:34.795Z,81.60
2023-01-09T08:12:04.254Z,81.30
2023-01-09T08:14:32.755Z,81.38
2023-01-09T08:17:00.756Z,81.38
2023-01-09T08:19:29.218Z,81.20
2023-01-09T08:21:57.338Z,81.03
2023-01-09T08:24:25.779Z,81.07
2023-01-09T08:26:54.084Z,80.72
2023-01-09T08:29:22.221Z,80.68
2023-01-09T08:31:50.156Z,81.22
2023-01-09T08:34:20.460Z,79.54
2023-01-09T08:36:48.869Z,79.30
2023-01-09T08:39:16.768Z,79.38
2023-01-09T08:41:57.604Z,78.76
2023-01-09T08:44:42.306Z,79.10
2023-01-09T08:47:10.273Z,79.64
2023-01-09T08:49:38.973Z,79.33
2023-01-09T08:52:07.714Z,79.74
2023-01-09T08:54:39.905Z,79.86
2023-01-09T08:57:08.129Z,78.57
2023-01-09T08:59:36.912Z,77.11
2023-01-09T09:02:05.148Z,75.92
2023-01-09T09:04:33.073Z,76.60
2023-01-09T09:07:01.576Z,75.66
2023-01-09T09:09:31.744Z,77.02
2023-01-09T09:12:08.191Z,76.18
2023-01-09T09:14:50.164Z,76.15
2023-01-09T09:17:18.121Z,76.38
2023-01-09T09:19:50.738Z,76.18
2023-01-09T09:22:24.610Z,77.49
2023-01-09T09:24:53.395Z,74.08
2023-01-09T09:27:21.383Z,73.82
2023-01-09T09:29:49.652Z,71.90
2023-01-09T09:32:25.101Z,71.41
2023-01-09T09:34:53.140Z,71.82
2023-01-09T09:37:24.336Z,71.63
2023-01-09T09:39:52.928Z,71.79
2023-01-09T09:43:02.589Z,72.91
2023-01-09T09:45:53.288Z,71.56
2023-01-09T09:48:38.730Z,68.30
2023-01-09T09:51:33.853Z,67.49
2023-01-09T09:54:14.117Z,67.87
2023-01-09T09:57:00.463Z,68.33
2023-01-09T10:00:20.763Z,67.20
2023-01-09T10:03:03.597Z,67.60
2023-01-09T10:05:48.682Z,66.38
2023-01-09T10:08:45.680Z,64.30
2023-01-09T10:11:23.918Z,66.66
2023-01-09T10:14:08.501Z,66.26
2023-01-09T10:17:10.830Z,66.36
2023-01-09T10:20:07.634Z,63.23
2023-01-09T10:23:08.147Z,62.49
2023-01-09T10:25:55.757Z,62.08
2023-01-09T10:28:57.084Z,61.87
2023-01-09T10:31:39.080Z,63.08
2023-01-09T10:34:24.274Z,64.14
2023-01-09T10:37:05.641Z,64.26
2023-01-09T10:39:42.054Z,64.47
2023-01-09T10:42:33.584Z,63.98
2023-01-09T10:45:15.980Z,64.46
2023-01-09T10:48:50.709Z,65.32
2023-01-09T10:51:22.298Z,63.74
2023-01-09T10:53:54.509Z,62.21
2023-01-09T10:56:35.152Z,61.53
2023-01-09T10:59:03.337Z,62.70
2023-01-09T11:01:39.669Z,62.10
2023-01-09T11:04:24.882Z,61.50
2023-01-09T11:06:59.015Z,61.39
2023-01-09T11:09:27.656Z,62.27
2023-01-09T11:11:56.759Z,61.49
2023-01-09T11:14:31.242Z,61.43
2023-01-09T11:17:03.450Z,60.84
2023-01-09T11:19:33.725Z,61.33
2023-01-09T11:22:15.895Z,61.80
2023-01-09T11:24:44.542Z,62.73
2023-01-09T11:27:24.034Z,61.81
2023-01-09T11:30:20.340Z,61.45
2023-01-09T11:36:14.104Z,61.53
2023-01-09T11:38:51.171Z,61.33
2023-01-09T11:41:32.504Z,61.66
2023-01-09T11:44:02.974Z,61.94
2023-01-09T11:47:33.248Z,62.39
2023-01-09T11:51:02.986Z,63.23
2023-01-09T11:54:15.591Z,63.39
2023-01-09T11:57:10.080Z,64.40
2023-01-09T12:00:34.151Z,63.65
2023-01-09T12:03:49.690Z,63.69
2023-01-09T12:06:43.074Z,62.86
2023-01-09T12:09:24.092Z,63.60
2023-01-09T12:12:05.356Z,61.43
2023-01-09T12:17:54.625Z,62.45
2023-01-09T12:20:53.759Z,62.43
2023-01-09T12:23:48.637Z,62.31
2023-01-09T12:26:24.058Z,61.89
2023-01-09T12:29:13.824Z,62.19
2023-01-09T12:32:09.979Z,62.49
2023-01-09T12:35:01.996Z,61.69
2023-01-09T12:37:53.896Z,62.33
2023-01-09T12:40:45.376Z,61.56
2023-01-09T12:43:45.122Z,61.64
2023-01-09T12:46:22.546Z,61.17
2023-01-09T12:49:17.753Z,59.31
2023-01-09T12:51:53.013Z,59.98
2023-01-09T12:54:34.246Z,59.90
2023-01-09T12:57:06.681Z,59.41
2023-01-09T13:04:32.333Z,57.51
2023-01-09T13:07:39.694Z,58.21
2023-01-09T13:11:26.643Z,58.51
2023-01-09T13:17:39.687Z,57.00
2023-01-09T13:21:00.873Z,57.80
2023-01-09T13:24:12.665Z,56.86
2023-01-09T13:27:12.602Z,57.05
2023-01-09T13:30:48.503Z,56.02
2023-01-09T13:33:57.690Z,55.93
2023-01-09T13:37:03.295Z,56.69
2023-01-09T13:39:34.674Z,57.01
2023-01-09T13:42:38.823Z,56.60
2023-01-09T13:45:27.033Z,57.11
2023-01-09T13:48:30.793Z,57.67
2023-01-09T13:51:39.028Z,56.83
2023-01-09T13:54:57.599Z,56.89
2023-01-09T13:57:55.630Z,56.93
2023-01-09T14:00:55.561Z,56.77
2023-01-09T14:04:44.721Z,57.24
2023-01-09T14:08:09.141Z,58.02
2023-01-09T14:14:40.608Z,58.72
2023-01-09T14:21:41.737Z,58.62
2023-01-09T14:24:55.696Z,59.97
2023-01-09T14:28:15.658Z,59.30
2023-01-09T14:31:04.901Z,59.30
2023-01-09T14:33:33.449Z,60.12
2023-01-09T14:36:19.480Z,60.20
2023-01-09T14:38:51.697Z,60.39
2023-01-09T14:45:26.832Z,61.06
2023-01-09T14:48:03.658Z,60.92
2023-01-09T14:50:38.951Z,60.95
2023-01-09T14:53:13.171Z,61.35
2023-01-09T14:55:52.223Z,61.19
2023-01-09T14:58:26.901Z,60.97
2023-01-09T15:01:05.751Z,60.74
2023-01-09T15:03:41.243Z,61.38
2023-01-09T15:06:21.312Z,61.08
2023-01-09T15:08:56.538Z,60.48
2023-01-09T15:11:28.685Z,60.57
2023-01-09T15:14:00.258Z,61.04
2023-01-09T15:16:29.704Z,60.46
2023-01-09T15:19:02.536Z,60.59
2023-01-09T15:21:32.151Z,61.59
2023-01-09T15:24:21.891Z,62.54
2023-01-09T15:26:54.135Z,61.92
2023-01-09T15:29:22.871Z,62.61
2023-01-09T15:31:55.842Z,62.90
2023-01-09T15:34:25.905Z,63.08
2023-01-09T15:36:54.165Z,63.00
2023-01-09T15:39:27.815Z,62.93
2023-01-09T15:42:16.567Z,62.86
2023-01-09T15:44:51.008Z,63.40
2023-01-09T15:47:27.814Z,63.56
2023-01-09T15:49:57.477Z,63.77
2023-01-09T15:52:26.107Z,63.81
2023-01-09T15:54:54.222Z,64.10
2023-01-09T15:57:35.305Z,64.40
2023-01-09T16:00:34.839Z,64.54
2023-01-09T16:03:17.269Z,65.20
2023-01-09T16:05:49.798Z,65.13
2023-01-09T16:08:29.553Z,65.46
2023-01-09T16:11:01.868Z,65.48
2023-01-09T16:13:32.935Z,65.64
2023-01-09T16:16:02.671Z,65.63
2023-01-09T16:18:37.364Z,65.94
2023-01-09T16:21:42.807Z,66.05
2023-01-09T16:24:25.914Z,66.77
2023-01-09T16:27:28.939Z,66.57
2023-01-09T16:31:08.836Z,66.91
2023-01-09T16:33:46.243Z,67.05
2023-01-09T16:36:14.585Z,67.25
2023-01-09T16:38:43.305Z,66.94
2023-01-09T16:41:30.074Z,67.18
2023-01-09T16:43:58.077Z,67.07
2023-01-09T16:46:28.710Z,66.80
2023-01-09T16:48:57.118Z,66.63
2023-01-09T16:51:25.841Z,65.89
2023-01-09T16:53:53.790Z,65.71
2023-01-09T16:56:27.612Z,65.71
2023-01-09T16:58:57.058Z,65.61
2023-01-09T17:01:27.302Z,65.01
2023-01-09T17:03:58.172Z,65.45
2023-01-09T17:06:30.507Z,65.63
2023-01-09T17:08:58.718Z,65.77
2023-01-09T17:11:32.059Z,65.69
2023-01-09T17:14:02.471Z,65.86
2023-01-09T17:16:30.672Z,65.75
2023-01-09T17:18:58.773Z,65.88
2023-01-09T17:21:29.381Z,65.76
2023-01-09T17:24:23.148Z,65.61
2023-01-09T17:27:03.131Z,65.59
2023-01-09T17:29:31.559Z,65.80
2023-01-09T17:32:00.511Z,66.18
2023-01-09T17:34:28.563Z,66.25
2023-01-09T17:36:56.557Z,66.34
2023-01-09T17:39:24.845Z,66.63
2023-01-09T17:41:57.589Z,66.75
2023-01-09T17:44:26.406Z,66.95
2023-01-09T17:46:54.315Z,67.22
2023-01-09T17:49:22.548Z,67.25
2023-01-09T17:51:50.494Z,67.42
2023-01-09T17:54:20.390Z,67.61
2023-01-09T17:56:51.173Z,67.40
2023-01-09T17:59:19.288Z,67.77
2023-01-09T18:01:47.634Z,67.98
2023-01-09T18:04:15.590Z,67.91
2023-01-09T18:06:43.511Z,68.11
2023-01-09T18:09:15.940Z,68.16
2023-01-09T18:11:44.726Z,68.33
2023-01-09T18:14:15.029Z,68.37
2023-01-09T18:16:44.452Z,68.52
2023-01-09T18:19:12.668Z,68.55
2023-01-09T18:21:40.493Z,68.62
2023-01-09T18:24:08.945Z,68.68
2023-01-09T18:26:36.915Z,68.59
2023-01-09T18:29:07.351Z,69.11
2023-01-09T18:31:35.392Z,69.29
2023-01-09T18:34:05.474Z,69.37
2023-01-09T18:36:33.760Z,69.94
2023-01-09T18:39:04.600Z,69.91
2023-01-09T18:41:32.993Z,70.17
2023-01-09T18:44:01.494Z,70.12
2023-01-09T18:46:32.774Z,70.37
2023-01-09T18:49:03.804Z,70.15
2023-01-09T18:51:34.737Z,70.62
2023-01-09T18:54:03.877Z,70.54
2023-01-09T18:56:31.917Z,70.70
2023-01-09T18:59:02.915Z,70.91
2023-01-09T19:01:31.665Z,71.05
2023-01-09T19:04:00.274Z,70.88
2023-01-09T19:06:29.978Z,71.13
2023-01-09T19:09:01.787Z,71.27
2023-01-09T19:11:29.643Z,70.89
2023-01-09T19:13:59.494Z,71.04
2023-01-09T19:16:27.441Z,71.25
2023-01-09T19:18:55.550Z,71.25
2023-01-09T19:21:26.879Z,71.10
2023-01-09T19:23:55.574Z,71.17
2023-01-09T19:26:26.756Z,71.09
2023-01-09T19:29:01.022Z,71.28
2023-01-09T19:31:55.655Z,70.79
2023-01-09T19:34:53.293Z,70.56
2023-01-09T19:38:08.706Z,70.12
2023-01-09T19:41:57.088Z,69.67
2023-01-09T19:45:16.874Z,69.70
2023-01-09T19:48:31.317Z,69.93
2023-01-09T19:51:39.618Z,70.04
2023-01-09T19:54:49.265Z,69.68
2023-01-09T19:57:41.390Z,69.51
2023-01-09T20:00:53.641Z,69.58
2023-01-09T20:04:32.559Z,69.89
2023-01-09T20:07:35.605Z,69.65
2023-01-09T20:11:00.606Z,69.85
2023-01-09T20:14:16.614Z,69.78
2023-01-09T20:17:36.755Z,69.86
2023-01-09T20:21:00.880Z,70.03
2023-01-09T20:24:12.700Z,70.29
2023-01-09T20:27:31.516Z,70.57
2023-01-09T20:31:22.726Z,70.70
2023-01-09T20:35:20.904Z,70.88
2023-01-09T20:38:47.373Z,70.95
2023-01-09T20:42:09.924Z,71.17
2023-01-09T20:45:00.230Z,70.87
2023-01-09T20:48:37.652Z,70.92
2023-01-09T20:51:57.930Z,70.57
2023-01-09T20:55:27.947Z,70.16
2023-01-09T20:59:27.733Z,70.05
2023-01-09T21:03:29.996Z,69.87
2023-01-09T21:07:30.588Z,69.79
2023-01-09T21:10:43.547Z,69.92
2023-01-09T21:13:56.974Z,70.36
2023-01-09T21:18:04.871Z,70.86
2023-01-09T21:21:53.405Z,70.59
2023-01-09T21:25:47.586Z,71.16
2023-01-09T21:33:24.275Z,71.15
2023-01-09T21:36:48.658Z,71.61
2023-01-09T21:40:12.620Z,71.72
2023-01-09T21:43:25.553Z,72.13
2023-01-09T21:46:48.087Z,72.32
2023-01-09T21:49:49.577Z,72.21
2023-01-09T21:53:03.585Z,73.55
2023-01-09T21:56:39.673Z,73.51
2023-01-09T22:00:23.594Z,73.19
2023-01-09T22:03:57.573Z,73.13
2023-01-09T22:07:06.687Z,73.67
2023-01-09T22:10:38.600Z,73.55
2023-01-09T22:14:12.616Z,73.91
2023-01-09T22:17:48.616Z,73.64
2023-01-09T22:21:23.607Z,73.84
2023-01-09T22:23:54.356Z,73.60
2023-01-09T22:27:31.605Z,73.59
2023-01-09T22:30:31.395Z,73.51
2023-01-09T22:37:08.778Z,72.83
2023-01-09T22:44:17.683Z,72.92
2023-01-09T22:48:14.546Z,72.76
2023-01-09T22:51:17.597Z,72.81
2023-01-09T22:54:49.587Z,73.04
2023-01-09T22:57:55.610Z,72.83
2023-01-09T23:00:40.331Z,73.20
2023-01-09T23:03:43.620Z,72.95
2023-01-09T23:10:24.989Z,73.00
2023-01-09T23:13:35.596Z,73.02
2023-01-09T23:16:31.706Z,73.42
2023-01-09T23:19:44.560Z,73.35
2023-01-09T23:26:27.103Z,73.08
2023-01-09T23:30:21.549Z,73.11
2023-01-09T23:32:55.077Z,73.20
2023-01-09T23:35:53.705Z,73.16
2023-01-09T23:39:15.697Z,73.15
2023-01-09T23:42:42.549Z,73.31
2023-01-09T23:50:02.801Z,73.27
2023-01-09T23:53:51.696Z,73.25
2023-01-09T23:56:59.730Z,73.04
2023-01-09T23:59:40.742Z,73.33
